Airfield :
LOGIN :

Register | Disclaimer

   EN    FR    IT 

 










Legend :    VFR   Marginal VFR   IFR   Intensive IFR   Very Intensive IFR
Visi :
Ceiling :
>= 8 km
>= 3000ft
5 to 8 km
1000 to 3000 ft
1500m to 5 km
500 to 1000 ft
800 to 1500m
200 to 500 ft
< 800m
< 200 ft
Symbols :   Thunderstorms  Fog  Heavy snow  Heavy precipitations  Wind > 20 kt
SIGMETs :     Misc.  Thunderstorms  Icing  Turbulence  Mountain Waves  Volcanic Ashes







- Airport Elevation : 284 ft


EGUW - RAF Wattisham

CURRENT METAR :
  • 152150Z AUTO 17014KT 8000 BR OVC004/// 04/03 Q1003 RERA

EXPIRED METARs :
  • 152050Z AUTO 17015G27KT 4200 -RA OVC004/// 03/03 Q1003
  • 151950Z AUTO 16018G28KT 3000 RA BKN004/// BKN012/// 03/02 Q1003

Expired Forecast.
No reported NOTAMs for that airfield.
4 SIGMETs reported for the London FIR (EGTT) :
 
Severe icing
EGTT SIGMET 16 VALID 152230/160230 EGRR
EGTT LONDON FIR SEV ICE FCST WI N5350 E00316 - N5323 E00148 - N5500 W00012 - N5500 E00203 - N5350 E00316 FL030/080 MOV NE 15KT WKN=
Severe mountain waves
EGTT SIGMET 15 VALID 152000/152300 EGRR
EGTT LONDON FIR SEV MTW FCST WI N5500 W00128 - N5144 W00236 - N5154 W00504 - N5427 W00341 - N5500 W00434 - N5500 W00128 FL030/250 STNR WKN=
Severe turbulence
EGTT SIGMET 14 VALID 152000/152300 EGRR
EGTT LONDON FIR SEV TURB FCST WI N5220 W00530 - N5500 W00530 - N5500 E00304 - N5318 E00133 - N5011 W00526 - N5212 W00546 - N5220 W00530 SFC/FL060 MOV NE 30KT NC=
Severe icing
EGTT SIGMET 13 VALID 151830/152230 EGRR
EGTT LONDON FIR SEV ICE FCST WI N5323 E00107 - N5349 W00020 - N5500 W00123 - N5500 W00005 - N5323 E00107 FL030/100 MOV E 15KT NC=



MET'MAP, your aeronautical weather chart ! - Copyright ORBIFLY December 2007 - Disclaimer

ORBIFLY MET'MAP TEAM :

Programming & Development : Alexandra Zaïnal
Concept & Development : Baudouin d'Aumeries
Co-Development & Prog : Marc-Olivier Méhu
Technical & hardware support : Manuel Goepfert

Contact : metmap@orbifly.com




SOURCES & CREDITS :

   NOAA